Ft Devens, Massachusetts
Current Conditions -  °F | °C
As of 6:52 PM on Saturday 20 Dec 2014 (Local Time) from KFIT Reporting Station
Overcast Overcast  
Wind Chill: 33°   Ceiling: 2500
Heat Index: 33°   Visibility: 10mi
Dew Point: 21°   Wind: 3mph
Humidity: 61%   Direction: 10°N
Pressure: 30.31"   Gusts: NA
Location:  42.5336°N, 71.6215°W
Report Text: KFIT 202352Z AUTO 01003KT 10SM OVC025 01/M06 A3031 RMK AO2 SLP268 T00061061 10017 20006 53010
Loading
Personal Weather Stations






























Interactive Weather Map New forecast layout! Learn more

10-Day Weather Forecast

Advertisements
Track Severe Weather on mobile